createdAt,value
2018-12-26T00:01:42.148Z,12.20
2018-12-26T00:04:15.360Z,11.60
2018-12-26T00:06:45.941Z,12.60
2018-12-26T00:09:18.045Z,11.53
2018-12-26T00:11:53.358Z,11.10
2018-12-26T00:14:23.758Z,13.33
2018-12-26T00:16:55.916Z,12.73
2018-12-26T00:19:26.347Z,12.57
2018-12-26T00:22:00.113Z,12.30
2018-12-26T00:24:33.633Z,12.60
2018-12-26T00:27:04.000Z,13.47
2018-12-26T00:29:36.576Z,12.90
2018-12-26T00:32:07.605Z,11.93
2018-12-26T00:34:40.825Z,11.90
2018-12-26T00:37:11.345Z,13.60
2018-12-26T00:39:44.119Z,13.47
2018-12-26T00:42:18.277Z,12.87
2018-12-26T00:44:48.725Z,11.73
2018-12-26T00:47:19.352Z,12.00
2018-12-26T00:49:52.641Z,12.07
2018-12-26T00:52:22.972Z,11.93
2018-12-26T00:54:53.376Z,13.27
2018-12-26T00:57:27.293Z,12.63
2018-12-26T00:59:57.725Z,13.73
2018-12-26T01:02:28.165Z,12.07
2018-12-26T01:04:59.709Z,12.60
2018-12-26T01:07:30.292Z,12.70
2018-12-26T01:10:04.151Z,13.40
2018-12-26T01:12:37.138Z,12.73
2018-12-26T01:15:07.465Z,12.50
2018-12-26T01:17:38.335Z,12.63
2018-12-26T01:20:09.009Z,12.40
2018-12-26T01:22:40.718Z,11.40
2018-12-26T01:25:10.806Z,12.20
2018-12-26T01:27:41.199Z,12.20
2018-12-26T01:30:11.424Z,12.10
2018-12-26T01:32:42.148Z,11.87
2018-12-26T01:35:12.474Z,12.60
2018-12-26T01:37:44.251Z,13.47
2018-12-26T01:40:14.592Z,11.97
2018-12-26T01:42:48.825Z,12.70
2018-12-26T01:45:19.240Z,12.90
2018-12-26T01:47:49.455Z,12.50
2018-12-26T01:50:20.254Z,12.13
2018-12-26T01:52:50.517Z,12.10
2018-12-26T01:55:20.850Z,12.10
2018-12-26T01:57:51.420Z,12.20
2018-12-26T02:00:22.043Z,12.03
2018-12-26T02:02:52.206Z,12.90
2018-12-26T02:05:22.924Z,12.57
2018-12-26T02:07:53.582Z,13.57
2018-12-26T02:13:00.211Z,12.40
2018-12-26T02:15:30.993Z,12.43
2018-12-26T02:18:01.345Z,12.70
2018-12-26T02:20:32.641Z,12.70
2018-12-26T02:23:05.320Z,12.50
2018-12-26T02:25:35.906Z,11.83
2018-12-26T02:28:06.359Z,12.23
2018-12-26T02:30:39.600Z,12.10
2018-12-26T02:33:10.365Z,12.20
2018-12-26T02:35:40.785Z,11.43
2018-12-26T02:38:11.117Z,12.80
2018-12-26T02:40:41.574Z,12.00
2018-12-26T02:43:12.144Z,11.90
2018-12-26T02:45:42.471Z,11.97
2018-12-26T02:48:12.829Z,12.47
2018-12-26T02:50:43.627Z,11.83
2018-12-26T02:53:15.277Z,12.07
2018-12-26T02:55:46.913Z,12.00
2018-12-26T02:58:17.159Z,12.47
2018-12-26T03:00:47.954Z,13.63
2018-12-26T03:03:18.464Z,12.63
2018-12-26T03:05:48.920Z,13.00
2018-12-26T03:08:19.064Z,13.73
2018-12-26T03:10:49.799Z,12.90
2018-12-26T03:13:20.114Z,13.17
2018-12-26T03:15:50.670Z,12.90
2018-12-26T03:18:21.513Z,12.90
2018-12-26T03:20:51.829Z,12.80
2018-12-26T03:23:22.225Z,11.67
2018-12-26T03:25:53.036Z,12.80
2018-12-26T03:28:23.258Z,12.90
2018-12-26T03:30:53.874Z,13.53
2018-12-26T03:33:24.481Z,13.10
2018-12-26T03:35:55.146Z,13.97
2018-12-26T03:38:25.603Z,12.50
2018-12-26T03:40:56.139Z,14.57
2018-12-26T03:43:26.461Z,12.37
2018-12-26T03:45:59.114Z,13.33
2018-12-26T03:48:31.238Z,13.23
2018-12-26T03:51:05.481Z,13.17
2018-12-26T03:53:36.102Z,13.30
2018-12-26T03:56:09.542Z,14.00
2018-12-26T03:58:40.414Z,13.90
2018-12-26T04:01:10.648Z,13.20
2018-12-26T04:03:41.005Z,12.53
2018-12-26T04:06:11.696Z,13.03
2018-12-26T04:08:41.853Z,14.80
2018-12-26T04:11:12.245Z,13.17
2018-12-26T04:13:42.955Z,14.80
2018-12-26T04:16:14.780Z,13.83
2018-12-26T04:18:48.996Z,15.63
2018-12-26T04:21:19.627Z,15.70
2018-12-26T04:23:50.455Z,14.60
2018-12-26T04:26:22.763Z,14.13
2018-12-26T04:28:53.166Z,15.20
2018-12-26T04:31:23.378Z,15.20
2018-12-26T04:33:53.757Z,14.13
2018-12-26T04:36:23.990Z,16.30
2018-12-26T04:38:55.077Z,14.10
2018-12-26T04:41:25.478Z,14.70
2018-12-26T04:43:55.746Z,15.47
2018-12-26T04:46:26.086Z,15.70
2018-12-26T04:48:56.825Z,15.50
2018-12-26T04:51:27.005Z,15.67
2018-12-26T04:53:59.995Z,15.80
2018-12-26T04:56:30.499Z,15.30
2018-12-26T04:59:00.939Z,16.37
2018-12-26T05:01:31.571Z,16.80
2018-12-26T05:04:02.162Z,16.23
2018-12-26T05:06:32.425Z,16.37
2018-12-26T05:09:03.517Z,15.70
2018-12-26T05:11:33.923Z,15.97
2018-12-26T05:14:04.745Z,16.63
2018-12-26T05:16:35.505Z,17.73
2018-12-26T05:19:06.064Z,16.47
2018-12-26T05:21:36.538Z,18.20
2018-12-26T05:24:06.885Z,17.90
2018-12-26T05:26:37.249Z,18.00
2018-12-26T05:29:07.559Z,17.07
2018-12-26T05:31:38.459Z,17.60
2018-12-26T05:34:09.089Z,17.13
2018-12-26T05:36:39.425Z,16.60
2018-12-26T05:39:09.766Z,16.87
2018-12-26T05:41:40.330Z,18.37
2018-12-26T05:44:10.393Z,18.17
2018-12-26T05:46:40.740Z,17.30
2018-12-26T05:49:11.653Z,18.03
2018-12-26T05:51:41.983Z,17.80
2018-12-26T05:54:12.277Z,17.03
2018-12-26T05:56:42.767Z,17.50
2018-12-26T05:59:15.285Z,17.87
2018-12-26T06:01:47.068Z,18.10
2018-12-26T06:04:20.621Z,18.67
2018-12-26T06:06:51.042Z,19.27
2018-12-26T06:09:21.353Z,19.30
2018-12-26T06:11:51.704Z,18.30
2018-12-26T06:14:21.846Z,18.87
2018-12-26T06:16:52.165Z,20.50
2018-12-26T06:19:23.208Z,20.07
2018-12-26T06:21:54.387Z,21.17
2018-12-26T06:24:24.897Z,21.50
2018-12-26T06:26:55.376Z,21.10
2018-12-26T06:29:25.630Z,20.43
2018-12-26T06:31:56.011Z,23.10
2018-12-26T06:34:26.842Z,22.10
2018-12-26T06:36:57.182Z,22.23
2018-12-26T06:39:27.504Z,21.87
2018-12-26T06:41:58.621Z,22.70
2018-12-26T06:44:30.276Z,19.77
2018-12-26T06:47:00.567Z,21.20
2018-12-26T06:49:33.765Z,21.90
2018-12-26T06:52:06.651Z,19.67
2018-12-26T06:54:37.033Z,21.87
2018-12-26T06:57:07.562Z,21.10
2018-12-26T06:59:39.570Z,21.37
2018-12-26T07:02:14.920Z,21.83
2018-12-26T07:04:45.171Z,19.80
2018-12-26T07:07:15.927Z,20.90
2018-12-26T07:09:46.650Z,20.40
2018-12-26T07:12:16.942Z,20.60
2018-12-26T07:14:47.681Z,21.97
2018-12-26T07:17:18.493Z,21.20
2018-12-26T07:19:48.718Z,21.20
2018-12-26T07:22:22.628Z,20.97
2018-12-26T07:24:52.994Z,20.57
2018-12-26T07:27:23.648Z,20.10
2018-12-26T07:29:54.601Z,20.30
2018-12-26T07:32:24.857Z,21.03
2018-12-26T07:34:55.197Z,22.37
2018-12-26T07:37:25.669Z,21.47
2018-12-26T07:39:55.870Z,20.80
2018-12-26T07:42:26.583Z,21.87
2018-12-26T07:44:57.000Z,21.60
2018-12-26T07:47:27.228Z,22.23
2018-12-26T07:49:59.079Z,22.33
2018-12-26T07:52:29.690Z,21.20
2018-12-26T07:55:03.036Z,20.00
2018-12-26T07:57:33.945Z,23.03
2018-12-26T08:00:06.318Z,21.60
2018-12-26T08:02:36.528Z,21.60
2018-12-26T08:05:07.485Z,21.57
2018-12-26T08:07:37.959Z,21.00
2018-12-26T08:10:09.462Z,20.17
2018-12-26T08:12:43.679Z,21.40
2018-12-26T08:15:14.064Z,22.70
2018-12-26T08:17:44.684Z,23.00
2018-12-26T08:20:20.444Z,22.20
2018-12-26T08:22:50.773Z,22.33
2018-12-26T08:25:20.926Z,22.67
2018-12-26T08:27:53.981Z,21.30
2018-12-26T08:30:26.175Z,23.80
2018-12-26T08:32:56.437Z,22.70
2018-12-26T08:35:27.255Z,24.27
2018-12-26T08:38:01.131Z,22.37
2018-12-26T08:40:31.281Z,24.30
2018-12-26T08:43:06.784Z,25.17
2018-12-26T08:45:37.041Z,24.77
2018-12-26T08:48:07.161Z,24.83
2018-12-26T08:50:38.450Z,24.00
2018-12-26T08:53:11.728Z,24.37
2018-12-26T08:55:43.429Z,26.00
2018-12-26T08:58:16.525Z,23.00
2018-12-26T09:00:46.905Z,23.30
2018-12-26T09:03:20.204Z,24.10
2018-12-26T09:05:51.218Z,25.57
2018-12-26T09:08:21.514Z,25.97
2018-12-26T09:10:51.777Z,25.93
2018-12-26T09:13:22.426Z,25.30
2018-12-26T09:15:53.068Z,25.10
2018-12-26T09:18:24.494Z,26.50
2018-12-26T09:20:57.300Z,25.10
2018-12-26T09:23:29.377Z,23.90
2018-12-26T09:26:02.975Z,25.43
2018-12-26T09:28:33.261Z,26.50
2018-12-26T09:31:06.904Z,25.33
2018-12-26T09:33:40.591Z,23.17
2018-12-26T09:36:12.944Z,25.47
2018-12-26T09:38:44.149Z,25.77
2018-12-26T09:41:14.505Z,25.93
2018-12-26T09:43:44.799Z,28.03
2018-12-26T09:46:18.419Z,25.93
2018-12-26T09:48:50.501Z,26.40
2018-12-26T09:51:20.465Z,26.03
2018-12-26T09:53:53.306Z,25.40
2018-12-26T09:56:23.253Z,24.87
2018-12-26T09:58:56.512Z,26.07
2018-12-26T10:01:27.094Z,25.47
2018-12-26T10:03:59.724Z,25.40
2018-12-26T10:06:30.327Z,27.43
2018-12-26T10:09:02.530Z,24.97
2018-12-26T10:11:34.521Z,23.50
2018-12-26T10:14:04.869Z,28.40
2018-12-26T10:16:35.553Z,25.77
2018-12-26T10:19:07.788Z,26.07
2018-12-26T10:21:38.146Z,25.60
2018-12-26T10:24:09.220Z,25.97
2018-12-26T10:26:49.125Z,26.33
2018-12-26T10:29:26.769Z,26.47
2018-12-26T10:31:57.313Z,25.47
2018-12-26T10:34:27.789Z,27.40
2018-12-26T10:37:02.292Z,25.50
2018-12-26T10:39:33.689Z,25.40
2018-12-26T10:42:03.938Z,26.77
2018-12-26T10:44:41.053Z,27.03
2018-12-26T10:47:13.205Z,26.30
2018-12-26T10:49:43.876Z,26.17
2018-12-26T10:52:14.457Z,24.30
2018-12-26T10:54:44.917Z,26.67
2018-12-26T10:57:17.824Z,25.50
2018-12-26T10:59:48.071Z,22.90
2018-12-26T11:02:18.365Z,26.30
2018-12-26T11:04:52.105Z,25.20
2018-12-26T11:07:22.281Z,25.37
2018-12-26T11:09:52.628Z,25.00
2018-12-26T11:12:29.568Z,26.53
2018-12-26T11:15:06.111Z,24.83
2018-12-26T11:17:39.585Z,27.30
2018-12-26T11:20:12.738Z,26.63
2018-12-26T11:22:47.416Z,25.70
2018-12-26T11:25:17.712Z,25.40
2018-12-26T11:27:48.155Z,26.33
2018-12-26T11:30:18.533Z,26.57
2018-12-26T11:32:50.026Z,24.73
2018-12-26T11:35:24.242Z,26.63
2018-12-26T11:37:59.631Z,25.87
2018-12-26T11:40:30.009Z,25.13
2018-12-26T11:43:00.395Z,26.13
2018-12-26T11:45:36.388Z,27.20
2018-12-26T11:48:06.785Z,28.17
2018-12-26T11:50:43.224Z,26.20
2018-12-26T11:53:14.629Z,26.10
2018-12-26T11:55:47.407Z,26.83
2018-12-26T11:58:19.056Z,26.40
2018-12-26T12:00:54.441Z,25.53
2018-12-26T12:03:24.503Z,25.93
2018-12-26T12:06:00.465Z,24.57
2018-12-26T12:08:32.526Z,25.40
2018-12-26T12:11:05.495Z,25.27
2018-12-26T12:13:43.512Z,24.50
2018-12-26T12:16:14.164Z,25.33
2018-12-26T12:18:47.267Z,25.00
2018-12-26T12:21:21.295Z,25.97
2018-12-26T12:23:53.812Z,23.03
2018-12-26T12:26:24.389Z,24.60
2018-12-26T12:28:55.031Z,25.60
2018-12-26T12:31:25.373Z,26.27
2018-12-26T12:33:56.109Z,24.00
2018-12-26T12:36:28.088Z,24.73
2018-12-26T12:38:59.277Z,24.37
2018-12-26T12:41:34.751Z,25.83
2018-12-26T12:44:08.634Z,25.27
2018-12-26T12:46:39.213Z,24.60
2018-12-26T12:49:09.625Z,23.97
2018-12-26T12:51:40.112Z,24.20
2018-12-26T12:54:16.038Z,25.63
2018-12-26T12:56:46.332Z,23.37
2018-12-26T12:59:19.941Z,23.27
2018-12-26T13:01:54.662Z,24.03
2018-12-26T13:04:25.106Z,22.80
2018-12-26T13:06:55.899Z,23.33
2018-12-26T13:09:26.678Z,23.23
2018-12-26T13:11:57.549Z,24.30
2018-12-26T13:14:32.420Z,23.97
2018-12-26T13:17:04.639Z,22.27
2018-12-26T13:19:37.062Z,23.20
2018-12-26T13:22:08.507Z,23.47
2018-12-26T13:24:38.836Z,23.70
2018-12-26T13:27:12.831Z,23.80
2018-12-26T13:29:53.774Z,21.80
2018-12-26T13:32:18.548Z,23.17
2018-12-26T13:34:48.989Z,23.03
2018-12-26T13:37:19.623Z,22.00
2018-12-26T13:39:50.049Z,22.57
2018-12-26T13:42:20.373Z,23.67
2018-12-26T13:44:50.603Z,23.23
2018-12-26T13:47:23.286Z,22.50
2018-12-26T13:49:53.656Z,21.23
2018-12-26T13:52:24.472Z,21.03
2018-12-26T13:54:54.778Z,20.87
2018-12-26T13:57:28.073Z,21.87
2018-12-26T14:00:02.353Z,19.57
2018-12-26T14:02:33.897Z,20.23
2018-12-26T14:05:04.373Z,19.60
2018-12-26T14:07:34.838Z,21.37
2018-12-26T14:10:05.149Z,21.30
2018-12-26T14:12:35.521Z,21.27
2018-12-26T14:15:06.809Z,19.80
2018-12-26T14:17:41.196Z,19.83
2018-12-26T14:20:11.656Z,19.50
2018-12-26T14:22:45.359Z,22.60
2018-12-26T14:25:15.764Z,19.30
2018-12-26T14:27:46.058Z,18.20
2018-12-26T14:30:16.397Z,20.13
2018-12-26T14:32:49.143Z,19.70
2018-12-26T14:35:20.848Z,18.37
2018-12-26T14:37:51.695Z,19.07
2018-12-26T14:40:23.145Z,20.20
2018-12-26T14:42:55.688Z,19.77
2018-12-26T14:45:29.801Z,18.50
2018-12-26T14:48:01.929Z,19.37
2018-12-26T14:50:37.259Z,18.40
2018-12-26T14:53:09.057Z,18.70
2018-12-26T14:55:42.353Z,19.40
2018-12-26T14:58:16.549Z,18.90
2018-12-26T15:00:50.181Z,19.13
2018-12-26T15:03:22.426Z,19.33
2018-12-26T15:05:53.022Z,19.00
2018-12-26T15:08:23.297Z,19.57
2018-12-26T15:10:53.809Z,19.23
2018-12-26T15:13:27.657Z,19.57
2018-12-26T15:15:57.921Z,21.20
2018-12-26T15:18:40.732Z,20.80
2018-12-26T15:21:11.057Z,20.10
2018-12-26T15:23:41.897Z,18.50
2018-12-26T15:26:12.549Z,19.10
2018-12-26T15:28:44.601Z,20.40
2018-12-26T15:31:18.356Z,21.23
2018-12-26T15:33:50.887Z,19.43
2018-12-26T15:36:27.281Z,20.53
2018-12-26T15:39:04.109Z,21.47
2018-12-26T15:41:35.431Z,21.27
2018-12-26T15:44:08.389Z,21.40
2018-12-26T15:46:39.043Z,20.73
2018-12-26T15:49:12.129Z,23.57
2018-12-26T15:51:43.017Z,22.57
2018-12-26T15:54:14.662Z,22.90
2018-12-26T15:56:46.637Z,21.70
2018-12-26T15:59:16.965Z,24.07
2018-12-26T16:01:56.519Z,23.93
2018-12-26T16:04:26.873Z,23.80
2018-12-26T16:07:05.630Z,24.90
2018-12-26T16:09:35.840Z,24.53
2018-12-26T16:12:08.842Z,24.00
2018-12-26T16:14:39.253Z,23.53
2018-12-26T16:17:09.751Z,24.37
2018-12-26T16:19:40.352Z,23.97
2018-12-26T16:22:10.757Z,23.20
2018-12-26T16:24:45.778Z,23.70
2018-12-26T16:27:18.974Z,23.17
2018-12-26T16:29:54.262Z,22.23
2018-12-26T16:32:26.565Z,23.53
2018-12-26T16:34:58.770Z,24.40
2018-12-26T16:37:29.273Z,21.40
2018-12-26T16:40:02.720Z,23.17
2018-12-26T16:42:35.064Z,22.80
2018-12-26T16:45:05.819Z,21.17
2018-12-26T16:47:36.405Z,21.90
2018-12-26T16:50:09.005Z,20.03
2018-12-26T16:52:39.673Z,23.10
2018-12-26T16:55:11.037Z,21.00
2018-12-26T16:57:44.364Z,20.03
2018-12-26T17:00:17.056Z,19.00
2018-12-26T17:02:50.229Z,20.37
2018-12-26T17:05:20.869Z,18.73
2018-12-26T17:07:51.398Z,20.63
2018-12-26T17:10:23.157Z,20.30
2018-12-26T17:12:53.555Z,18.43
2018-12-26T17:15:33.689Z,19.00
2018-12-26T17:18:05.861Z,18.27
2018-12-26T17:20:39.522Z,19.23
2018-12-26T17:23:11.321Z,20.47
2018-12-26T17:25:43.241Z,17.63
2018-12-26T17:28:16.774Z,19.57
2018-12-26T17:30:48.117Z,18.97
2018-12-26T17:33:18.377Z,20.93
2018-12-26T17:35:50.505Z,20.33
2018-12-26T17:38:20.684Z,18.87
2018-12-26T17:40:50.986Z,18.90
2018-12-26T17:43:21.845Z,19.77
2018-12-26T17:45:52.747Z,20.33
2018-12-26T17:48:24.155Z,18.90
2018-12-26T17:50:54.673Z,18.73
2018-12-26T17:54:04.636Z,17.40
2018-12-26T17:56:51.306Z,18.73
2018-12-26T18:00:03.090Z,18.73
2018-12-26T18:02:45.043Z,19.20
2018-12-26T18:05:17.796Z,17.33
2018-12-26T18:07:50.193Z,17.33
2018-12-26T18:10:20.484Z,19.00
2018-12-26T18:12:52.062Z,18.70
2018-12-26T18:15:22.944Z,18.60
2018-12-26T18:17:57.020Z,19.33
2018-12-26T18:20:29.919Z,17.13
2018-12-26T18:23:00.726Z,17.97
2018-12-26T18:25:34.126Z,18.60
2018-12-26T18:28:04.619Z,19.80
2018-12-26T18:30:37.622Z,20.00
2018-12-26T18:33:08.112Z,19.03
2018-12-26T18:35:40.827Z,20.03
2018-12-26T18:38:15.615Z,19.57
2018-12-26T18:40:45.901Z,21.07
2018-12-26T18:43:16.969Z,20.20
2018-12-26T18:45:47.513Z,20.33
2018-12-26T18:48:17.931Z,20.17
2018-12-26T18:50:48.194Z,20.83
2018-12-26T18:53:20.189Z,21.37
2018-12-26T18:55:50.449Z,20.03
2018-12-26T18:58:23.998Z,23.90
2018-12-26T19:01:00.249Z,22.17
2018-12-26T19:03:30.781Z,22.20
2018-12-26T19:06:07.451Z,21.47
2018-12-26T19:08:38.337Z,22.77
2018-12-26T19:11:10.367Z,23.17
2018-12-26T19:13:44.712Z,22.50
2018-12-26T19:16:14.844Z,23.97
2018-12-26T19:18:45.716Z,22.40
2018-12-26T19:21:22.169Z,24.30
2018-12-26T19:23:52.346Z,24.20
2018-12-26T19:26:22.652Z,24.47
2018-12-26T19:28:53.177Z,24.07
2018-12-26T19:31:23.664Z,22.90
2018-12-26T19:33:56.314Z,23.73
2018-12-26T19:36:29.201Z,25.80
2018-12-26T19:39:02.237Z,26.33
2018-12-26T19:41:35.574Z,23.13
2018-12-26T19:44:08.874Z,24.60
2018-12-26T19:46:41.189Z,24.67
2018-12-26T19:49:14.634Z,24.90
2018-12-26T19:51:45.541Z,25.00
2018-12-26T19:54:19.264Z,25.20
2018-12-26T19:56:49.511Z,24.20
2018-12-26T19:59:20.435Z,24.70
2018-12-26T20:01:53.918Z,25.47
2018-12-26T20:04:26.196Z,23.90
2018-12-26T20:06:59.969Z,23.00
2018-12-26T20:09:33.528Z,23.07
2018-12-26T20:12:10.569Z,23.90
2018-12-26T20:14:40.901Z,24.10
2018-12-26T20:17:16.623Z,24.30
2018-12-26T20:19:47.326Z,23.57
2018-12-26T20:22:17.826Z,24.07
2018-12-26T20:24:48.061Z,23.37
2018-12-26T20:27:22.240Z,24.50
2018-12-26T20:29:52.738Z,24.90
2018-12-26T20:32:25.450Z,25.03
2018-12-26T20:34:56.094Z,24.73
2018-12-26T20:37:28.158Z,23.63
2018-12-26T20:40:01.917Z,24.87
2018-12-26T20:42:32.213Z,25.97
2018-12-26T20:45:06.194Z,23.13
2018-12-26T20:47:45.464Z,23.00
2018-12-26T20:50:15.950Z,23.80
2018-12-26T20:52:46.684Z,23.67
2018-12-26T20:55:19.085Z,23.47
2018-12-26T20:57:49.448Z,24.50
2018-12-26T21:00:20.353Z,22.60
2018-12-26T21:03:00.229Z,22.13
2018-12-26T21:05:30.974Z,21.43
2018-12-26T21:08:01.534Z,21.00
2018-12-26T21:10:33.328Z,21.60
2018-12-26T21:13:04.084Z,20.60
2018-12-26T21:15:34.305Z,21.17
2018-12-26T21:18:10.290Z,19.33
2018-12-26T21:20:43.706Z,19.57
2018-12-26T21:23:15.548Z,20.00
2018-12-26T21:25:46.795Z,18.90
2018-12-26T21:28:18.607Z,17.87
2018-12-26T21:30:48.807Z,18.30
2018-12-26T21:33:19.287Z,18.07
2018-12-26T21:35:50.325Z,17.63
2018-12-26T21:38:20.590Z,17.80
2018-12-26T21:40:50.867Z,17.17
2018-12-26T21:43:25.787Z,17.67
2018-12-26T21:45:55.999Z,16.03
2018-12-26T21:48:29.912Z,17.33
2018-12-26T21:51:02.052Z,15.73
2018-12-26T21:53:37.106Z,16.47
2018-12-26T21:56:09.845Z,16.20
2018-12-26T21:58:43.841Z,15.07
2018-12-26T22:01:14.457Z,15.03
2018-12-26T22:03:44.745Z,15.53
2018-12-26T22:06:15.390Z,15.80
2018-12-26T22:08:48.485Z,16.20
2018-12-26T22:11:23.843Z,16.33
2018-12-26T22:13:54.189Z,15.03
2018-12-26T22:16:24.493Z,15.20
2018-12-26T22:18:54.935Z,16.23
2018-12-26T22:21:25.335Z,15.10
2018-12-26T22:23:55.496Z,15.13
2018-12-26T22:26:25.677Z,15.23
2018-12-26T22:28:56.795Z,15.27
2018-12-26T22:31:28.143Z,15.43
2018-12-26T22:33:58.471Z,15.53
2018-12-26T22:36:28.713Z,14.67
2018-12-26T22:38:58.957Z,13.70
2018-12-26T22:41:32.515Z,13.60
2018-12-26T22:44:04.763Z,14.60
2018-12-26T22:46:41.900Z,14.33
2018-12-26T22:49:12.559Z,13.50
2018-12-26T22:51:44.973Z,14.87
2018-12-26T22:54:15.541Z,15.07
2018-12-26T22:56:47.654Z,13.93
2018-12-26T22:59:17.984Z,14.27
2018-12-26T23:01:55.489Z,13.83
2018-12-26T23:04:25.809Z,13.90
2018-12-26T23:06:56.145Z,15.27
2018-12-26T23:09:32.343Z,14.00
2018-12-26T23:12:02.813Z,15.37
2018-12-26T23:14:35.898Z,13.13
2018-12-26T23:17:09.555Z,13.73
2018-12-26T23:19:43.056Z,13.90
2018-12-26T23:22:15.394Z,14.67
2018-12-26T23:24:46.294Z,13.07
2018-12-26T23:27:16.641Z,13.57
2018-12-26T23:29:47.258Z,13.77
2018-12-26T23:32:17.584Z,13.50
2018-12-26T23:34:49.208Z,12.50
2018-12-26T23:37:19.630Z,13.23
2018-12-26T23:39:52.132Z,12.13
2018-12-26T23:42:22.333Z,12.43
2018-12-26T23:44:59.133Z,11.73
2018-12-26T23:47:29.484Z,13.20
2018-12-26T23:50:00.372Z,12.60
2018-12-26T23:52:30.861Z,11.83
2018-12-26T23:55:05.397Z,13.40
2018-12-26T23:57:37.203Z,12.63
